createdAt,value
2022-11-09T00:00:50.707Z,86.80
2022-11-09T00:03:22.333Z,91.80
2022-11-09T00:06:03.015Z,79.80
2022-11-09T00:08:34.647Z,80.00
2022-11-09T00:13:40.532Z,71.20
2022-11-09T00:16:13.408Z,87.40
2022-11-09T00:18:47.792Z,76.40
2022-11-09T00:21:20.971Z,92.40
2022-11-09T00:23:52.468Z,79.20
2022-11-09T00:26:24.137Z,96.90
2022-11-09T00:31:25.760Z,89.20
2022-11-09T00:33:58.256Z,70.60
2022-11-09T00:36:30.155Z,73.40
2022-11-09T00:39:01.904Z,74.50
2022-11-09T00:41:33.604Z,67.30
2022-11-09T00:44:06.221Z,54.60
2022-11-09T00:46:37.984Z,62.90
2022-11-09T00:49:10.259Z,59.20
2022-11-09T00:51:41.905Z,70.30
2022-11-09T00:54:14.397Z,74.70
2022-11-09T00:56:46.007Z,125.20
2022-11-09T01:01:48.164Z,137.70
2022-11-09T01:04:19.718Z,119.90
2022-11-09T01:09:21.542Z,153.60
2022-11-09T01:14:26.794Z,147.60
2022-11-09T01:16:58.624Z,144.50
2022-11-09T01:19:30.976Z,165.50
2022-11-09T01:22:02.474Z,170.90
2022-11-09T01:24:33.902Z,175.90
2022-11-09T01:27:05.725Z,191.50
2022-11-09T01:29:37.227Z,177.80
2022-11-09T01:34:38.533Z,196.50
2022-11-09T01:37:09.906Z,182.80
2022-11-09T01:39:41.618Z,196.40
2022-11-09T01:44:46.752Z,194.90
2022-11-09T01:49:51.452Z,88.30
2022-11-09T01:52:24.747Z,63.00
2022-11-09T01:55:02.238Z,74.00
2022-11-09T01:57:36.042Z,62.90
2022-11-09T02:00:10.122Z,62.40
2022-11-09T02:02:49.474Z,69.30
2022-11-09T02:05:23.425Z,62.10
2022-11-09T02:07:56.727Z,60.30
2022-11-09T02:10:30.662Z,62.30
2022-11-09T02:13:04.096Z,62.10
2022-11-09T02:15:45.411Z,70.70
2022-11-09T02:18:17.584Z,76.10
2022-11-09T02:20:50.459Z,94.20
2022-11-09T02:23:22.307Z,92.10
2022-11-09T02:25:56.546Z,108.10
2022-11-09T02:28:29.112Z,110.20
2022-11-09T02:31:00.635Z,97.10
2022-11-09T02:36:03.397Z,118.60
2022-11-09T02:38:35.077Z,109.50
2022-11-09T02:41:07.068Z,113.00
2022-11-09T02:43:39.068Z,104.50
2022-11-09T02:46:10.793Z,89.90
2022-11-09T02:48:42.466Z,92.20
2022-11-09T02:53:44.122Z,81.80
2022-11-09T02:56:16.145Z,79.60
2022-11-09T02:58:47.579Z,67.30
2022-11-09T03:01:19.038Z,58.40
2022-11-09T03:06:20.372Z,46.90
2022-11-09T03:08:51.857Z,48.90
2022-11-09T03:11:23.887Z,54.50
2022-11-09T03:13:55.854Z,50.30
2022-11-09T03:16:27.421Z,52.90
2022-11-09T03:18:59.113Z,44.70
2022-11-09T03:24:00.487Z,44.60
2022-11-09T03:29:02.962Z,43.00
2022-11-09T03:31:34.854Z,48.80
2022-11-09T03:34:08.701Z,45.70
2022-11-09T03:36:40.472Z,46.70
2022-11-09T03:39:12.124Z,45.40
2022-11-09T03:44:13.687Z,52.70
2022-11-09T03:46:45.362Z,45.30
2022-11-09T03:51:47.138Z,44.80
2022-11-09T03:54:18.895Z,42.30
2022-11-09T03:56:50.350Z,44.30
2022-11-09T03:59:21.971Z,40.90
2022-11-09T04:04:23.457Z,42.20
2022-11-09T04:06:55.156Z,46.20
2022-11-09T04:09:26.966Z,42.10
2022-11-09T04:11:58.372Z,44.70
2022-11-09T04:14:29.880Z,43.40
2022-11-09T04:17:01.536Z,43.00
2022-11-09T04:22:03.264Z,87.00
2022-11-09T04:24:34.673Z,87.30
2022-11-09T04:27:06.382Z,55.50
2022-11-09T04:32:07.654Z,38.10
2022-11-09T04:37:08.801Z,40.20
2022-11-09T04:39:40.339Z,35.50
2022-11-09T04:42:11.712Z,31.60
2022-11-09T04:44:43.162Z,35.70
2022-11-09T04:47:14.521Z,33.80
2022-11-09T04:49:46.338Z,34.20
2022-11-09T04:52:17.730Z,31.40
2022-11-09T04:57:19.216Z,33.30
2022-11-09T04:59:50.920Z,33.00
2022-11-09T05:04:52.412Z,35.50
2022-11-09T05:07:24.310Z,40.30
2022-11-09T05:09:55.887Z,37.20
2022-11-09T05:14:57.515Z,39.30
2022-11-09T05:17:28.960Z,42.80
2022-11-09T05:20:00.436Z,39.50
2022-11-09T05:22:45.594Z,42.70
2022-11-09T05:25:17.434Z,36.70
2022-11-09T05:27:49.719Z,36.80
2022-11-09T05:30:21.588Z,40.20
2022-11-09T05:32:53.852Z,40.20
2022-11-09T05:35:25.377Z,33.90
2022-11-09T05:40:27.247Z,33.10
2022-11-09T05:42:58.774Z,33.80
2022-11-09T05:45:45.983Z,30.00
2022-11-09T05:48:18.944Z,36.20
2022-11-09T05:50:50.632Z,39.10
2022-11-09T05:53:31.563Z,34.30
2022-11-09T05:56:06.481Z,35.70
2022-11-09T05:58:39.153Z,37.40
2022-11-09T06:01:11.786Z,43.40
2022-11-09T06:03:44.615Z,49.30
2022-11-09T06:06:17.279Z,52.10
2022-11-09T06:08:48.663Z,70.40
2022-11-09T06:11:24.145Z,72.30
2022-11-09T06:13:56.132Z,87.00
2022-11-09T06:16:27.475Z,95.50
2022-11-09T06:18:58.975Z,107.80
2022-11-09T06:21:30.301Z,116.20
2022-11-09T06:24:01.937Z,143.90
2022-11-09T06:29:04.023Z,155.30
2022-11-09T06:34:06.188Z,156.90
2022-11-09T06:36:38.631Z,116.50
2022-11-09T06:39:11.172Z,129.10
2022-11-09T06:41:47.730Z,142.30
2022-11-09T06:44:20.917Z,122.70
2022-11-09T06:46:56.260Z,109.30
2022-11-09T06:49:33.710Z,106.60
2022-11-09T06:52:07.708Z,96.60
2022-11-09T06:54:40.336Z,90.30
2022-11-09T06:57:11.983Z,97.40
2022-11-09T07:02:13.776Z,72.70
2022-11-09T07:04:45.157Z,101.40
2022-11-09T07:07:16.622Z,92.50
2022-11-09T07:09:48.078Z,45.20
2022-11-09T07:12:19.700Z,38.10
2022-11-09T07:14:51.452Z,30.40
2022-11-09T07:19:52.623Z,36.70
2022-11-09T07:22:24.232Z,35.90
2022-11-09T07:27:28.169Z,41.60
2022-11-09T07:30:00.056Z,40.90
2022-11-09T07:33:01.884Z,31.50
2022-11-09T07:35:22.898Z,37.40
2022-11-09T07:40:24.360Z,51.00
2022-11-09T07:42:55.731Z,43.90
2022-11-09T07:45:27.340Z,40.80
2022-11-09T07:50:32.240Z,77.90
2022-11-09T07:53:04.183Z,64.60
2022-11-09T07:55:35.827Z,78.90
2022-11-09T07:58:11.045Z,107.80
2022-11-09T08:00:42.960Z,95.10
2022-11-09T08:03:14.871Z,82.00
2022-11-09T08:05:46.847Z,87.60
2022-11-09T08:08:18.733Z,85.70
2022-11-09T08:10:53.344Z,88.00
2022-11-09T08:13:24.843Z,103.30
2022-11-09T08:18:26.789Z,101.90
2022-11-09T08:20:58.656Z,102.70
2022-11-09T08:23:30.946Z,108.10
2022-11-09T08:26:05.188Z,107.10
2022-11-09T08:28:36.948Z,102.70
2022-11-09T08:31:10.791Z,100.90
2022-11-09T08:33:43.250Z,113.40
2022-11-09T08:36:16.218Z,106.70
2022-11-09T08:38:48.020Z,105.90
2022-11-09T08:41:20.086Z,110.60
2022-11-09T08:43:52.057Z,100.40
2022-11-09T08:46:24.241Z,119.10
2022-11-09T08:48:56.071Z,126.00
2022-11-09T08:51:28.202Z,130.10
2022-11-09T08:56:30.128Z,129.20
2022-11-09T09:01:31.746Z,129.70
2022-11-09T09:04:03.121Z,137.10
2022-11-09T09:06:34.811Z,139.80
2022-11-09T09:11:36.298Z,145.10
2022-11-09T09:16:37.905Z,145.40
2022-11-09T09:21:39.781Z,161.30
2022-11-09T09:26:41.871Z,153.60
2022-11-09T09:29:13.634Z,163.30
2022-11-09T09:34:15.114Z,153.10
2022-11-09T09:39:20.183Z,171.40
2022-11-09T09:44:26.686Z,144.00
2022-11-09T09:47:00.266Z,129.70
2022-11-09T09:49:32.154Z,115.50
2022-11-09T09:52:05.301Z,100.30
2022-11-09T09:54:41.151Z,127.50
2022-11-09T09:57:17.118Z,128.00
2022-11-09T09:59:51.001Z,106.60
2022-11-09T10:02:26.342Z,96.30
2022-11-09T10:04:58.962Z,65.50
2022-11-09T10:07:32.077Z,59.10
2022-11-09T10:10:22.151Z,55.60
2022-11-09T10:13:02.270Z,56.70
2022-11-09T10:15:35.357Z,56.20
2022-11-09T10:18:16.837Z,47.80
2022-11-09T10:21:08.853Z,49.30
2022-11-09T10:26:19.620Z,52.90
2022-11-09T10:29:15.176Z,52.70
2022-11-09T10:31:45.640Z,49.40
2022-11-09T10:34:21.025Z,56.30
2022-11-09T10:36:58.246Z,54.40
2022-11-09T10:39:33.640Z,44.70
2022-11-09T10:42:24.083Z,48.30
2022-11-09T10:45:23.414Z,45.10
2022-11-09T10:48:14.302Z,49.90
2022-11-09T10:51:05.060Z,52.60
2022-11-09T10:53:56.008Z,45.70
2022-11-09T10:59:59.419Z,46.30
2022-11-09T11:02:52.318Z,47.40
2022-11-09T11:05:43.508Z,52.70
2022-11-09T11:08:36.574Z,59.70
2022-11-09T11:11:36.094Z,59.80
2022-11-09T11:14:32.158Z,62.00
2022-11-09T11:17:26.721Z,69.00
2022-11-09T11:20:31.474Z,63.10
2022-11-09T11:23:22.916Z,70.20
2022-11-09T11:26:31.893Z,82.10
2022-11-09T11:29:31.167Z,68.20
2022-11-09T11:32:21.690Z,52.10
2022-11-09T11:35:17.261Z,52.00
2022-11-09T11:38:15.599Z,52.50
2022-11-09T11:41:10.941Z,51.80
2022-11-09T11:44:03.734Z,54.60
2022-11-09T11:47:00.268Z,54.20
2022-11-09T11:50:03.834Z,51.40
2022-11-09T11:53:08.401Z,55.50
2022-11-09T11:56:22.030Z,57.40
2022-11-09T11:59:39.111Z,55.50
2022-11-09T12:02:49.918Z,51.20
2022-11-09T12:05:57.849Z,49.20
2022-11-09T12:08:55.754Z,53.30
2022-11-09T12:11:55.298Z,52.20
2022-11-09T12:14:50.676Z,53.00
2022-11-09T12:17:44.894Z,52.40
2022-11-09T12:20:38.459Z,63.20
2022-11-09T12:23:36.615Z,54.10
2022-11-09T12:26:31.649Z,51.20
2022-11-09T12:29:24.300Z,51.70
2022-11-09T12:32:21.955Z,55.80
2022-11-09T12:35:30.806Z,48.00
2022-11-09T12:38:28.693Z,49.00
2022-11-09T12:41:20.252Z,43.10
2022-11-09T12:44:17.059Z,41.30
2022-11-09T12:47:09.639Z,40.50
2022-11-09T12:50:00.044Z,38.40
2022-11-09T12:52:52.401Z,41.60
2022-11-09T12:55:47.733Z,42.00
2022-11-09T12:58:38.279Z,38.50
2022-11-09T13:01:50.028Z,42.40
2022-11-09T13:04:40.417Z,31.40
2022-11-09T13:07:40.720Z,36.10
2022-11-09T13:10:34.782Z,43.20
2022-11-09T13:13:26.861Z,38.40
2022-11-09T13:16:34.837Z,41.80
2022-11-09T13:19:56.241Z,35.30
2022-11-09T13:23:03.320Z,37.30
2022-11-09T13:25:54.547Z,41.40
2022-11-09T13:28:46.959Z,40.20
2022-11-09T13:34:45.044Z,37.40
2022-11-09T13:37:49.616Z,37.90
2022-11-09T13:40:52.094Z,37.20
2022-11-09T13:43:42.514Z,33.50
2022-11-09T13:46:41.263Z,41.90
2022-11-09T13:49:49.819Z,37.10
2022-11-09T13:52:51.809Z,41.80
2022-11-09T13:55:42.498Z,36.30
2022-11-09T13:58:34.999Z,36.00
2022-11-09T14:01:37.935Z,37.30
2022-11-09T14:04:31.419Z,36.00
2022-11-09T14:07:23.792Z,36.40
2022-11-09T14:10:20.546Z,38.80
2022-11-09T14:13:21.529Z,39.90
2022-11-09T14:16:15.377Z,40.10
2022-11-09T14:19:18.986Z,43.30
2022-11-09T14:22:17.798Z,41.20
2022-11-09T14:25:16.732Z,40.80
2022-11-09T14:28:22.044Z,45.10
2022-11-09T14:31:24.010Z,44.50
2022-11-09T14:34:17.945Z,51.70
2022-11-09T14:37:10.696Z,44.00
2022-11-09T14:40:01.173Z,44.70
2022-11-09T14:42:53.847Z,50.20
2022-11-09T14:45:52.250Z,52.50
2022-11-09T14:48:45.923Z,58.90
2022-11-09T14:51:38.678Z,63.90
2022-11-09T14:54:29.205Z,53.50
2022-11-09T14:57:19.593Z,55.80
2022-11-09T15:00:25.502Z,64.40
2022-11-09T15:03:31.890Z,72.90
2022-11-09T15:06:22.094Z,73.50
2022-11-09T15:09:15.972Z,57.00
2022-11-09T15:12:07.449Z,55.50
2022-11-09T15:14:58.988Z,55.60
2022-11-09T15:17:49.303Z,61.10
2022-11-09T15:20:39.828Z,62.80
2022-11-09T15:23:40.771Z,63.30
2022-11-09T15:26:37.533Z,64.60
2022-11-09T15:29:36.526Z,63.90
2022-11-09T15:32:27.041Z,63.80
2022-11-09T15:35:19.743Z,56.60
2022-11-09T15:38:33.342Z,49.90
2022-11-09T15:41:24.012Z,59.10
2022-11-09T15:44:15.379Z,69.20
2022-11-09T15:47:07.587Z,73.20
2022-11-09T15:49:58.475Z,65.20
2022-11-09T15:52:49.354Z,66.90
2022-11-09T15:55:40.072Z,69.20
2022-11-09T15:58:30.825Z,66.00
2022-11-09T16:01:21.162Z,61.50
2022-11-09T16:04:11.601Z,61.10
2022-11-09T16:07:01.856Z,69.20
2022-11-09T16:09:52.291Z,66.60
2022-11-09T16:12:46.242Z,73.90
2022-11-09T16:15:36.987Z,89.90
2022-11-09T16:18:27.600Z,79.40
2022-11-09T16:21:18.637Z,87.20
2022-11-09T16:24:09.424Z,78.70
2022-11-09T16:26:59.901Z,83.30
2022-11-09T16:29:50.178Z,74.60
2022-11-09T16:32:40.308Z,75.80
2022-11-09T16:35:30.258Z,66.10
2022-11-09T16:38:20.606Z,68.70
2022-11-09T16:41:11.027Z,69.00
2022-11-09T16:44:01.291Z,64.10
2022-11-09T16:46:52.336Z,60.30
2022-11-09T16:49:42.728Z,61.90
2022-11-09T16:52:33.154Z,66.80
2022-11-09T16:55:23.561Z,60.70
2022-11-09T16:58:13.449Z,60.40
2022-11-09T17:01:11.551Z,58.00
2022-11-09T17:04:02.331Z,66.40
2022-11-09T17:06:53.105Z,59.10
2022-11-09T17:09:43.204Z,69.20
2022-11-09T17:12:34.103Z,62.60
2022-11-09T17:15:24.554Z,62.00
2022-11-09T17:18:15.032Z,64.40
2022-11-09T17:21:05.281Z,66.70
2022-11-09T17:23:55.423Z,60.10
2022-11-09T17:26:46.351Z,69.90
2022-11-09T17:29:37.564Z,72.10
2022-11-09T17:32:28.444Z,69.00
2022-11-09T17:35:18.951Z,70.60
2022-11-09T17:38:08.977Z,69.10
2022-11-09T17:41:06.175Z,73.80
2022-11-09T17:43:56.723Z,60.30
2022-11-09T17:46:47.981Z,75.30
2022-11-09T17:49:38.298Z,63.30
2022-11-09T17:52:28.492Z,61.70
2022-11-09T17:55:18.587Z,60.60
2022-11-09T17:58:08.731Z,73.50
2022-11-09T18:00:59.377Z,64.00
2022-11-09T18:03:49.398Z,64.80
2022-11-09T18:06:39.929Z,72.90
2022-11-09T18:09:46.007Z,71.60
2022-11-09T18:12:36.023Z,70.10
2022-11-09T18:15:26.168Z,67.50
2022-11-09T18:18:16.199Z,76.70
2022-11-09T18:21:10.646Z,74.30
2022-11-09T18:24:01.081Z,76.70
2022-11-09T18:26:51.569Z,75.60
2022-11-09T18:29:42.493Z,68.60
2022-11-09T18:32:33.796Z,74.80
2022-11-09T18:35:24.339Z,72.50
2022-11-09T18:38:17.497Z,70.50
2022-11-09T18:41:11.095Z,80.40
2022-11-09T18:44:27.257Z,95.50
2022-11-09T18:47:17.428Z,94.30
2022-11-09T18:50:09.879Z,70.10
2022-11-09T18:52:59.950Z,80.50
2022-11-09T18:55:50.048Z,81.80
2022-11-09T18:58:39.966Z,94.00
2022-11-09T19:01:30.414Z,110.80
2022-11-09T19:04:20.600Z,114.40
2022-11-09T19:07:11.044Z,93.10
2022-11-09T19:10:01.377Z,101.30
2022-11-09T19:12:51.789Z,100.70
2022-11-09T19:15:42.828Z,96.20
2022-11-09T19:18:33.262Z,109.40
2022-11-09T19:21:38.483Z,106.10
2022-11-09T19:24:31.208Z,117.80
2022-11-09T19:27:21.240Z,133.60
2022-11-09T19:30:13.007Z,144.80
2022-11-09T19:33:03.839Z,135.60
2022-11-09T19:36:23.270Z,129.20
2022-11-09T19:39:05.625Z,141.40
2022-11-09T19:41:56.267Z,131.50
2022-11-09T19:44:48.914Z,137.40
2022-11-09T19:47:42.779Z,142.20
2022-11-09T19:50:33.602Z,144.50
2022-11-09T19:53:24.099Z,157.50
2022-11-09T19:56:14.663Z,134.60
2022-11-09T19:59:05.001Z,146.10
2022-11-09T20:01:56.341Z,140.80
2022-11-09T20:04:47.778Z,154.80
2022-11-09T20:07:38.024Z,140.70
2022-11-09T20:10:28.316Z,134.80
2022-11-09T20:13:20.721Z,157.50
2022-11-09T20:16:11.778Z,122.10
2022-11-09T20:19:01.951Z,143.00
2022-11-09T20:21:51.863Z,136.70
2022-11-09T20:24:42.421Z,132.80
2022-11-09T20:27:32.698Z,139.30
2022-11-09T20:30:22.961Z,140.00
2022-11-09T20:33:13.044Z,126.10
2022-11-09T20:36:03.505Z,154.90
2022-11-09T20:38:54.903Z,165.20
2022-11-09T20:41:45.151Z,130.20
2022-11-09T20:44:35.400Z,159.30
2022-11-09T20:47:57.163Z,162.00
2022-11-09T20:50:36.741Z,139.40
2022-11-09T20:53:27.391Z,126.50
2022-11-09T20:56:18.452Z,143.00
2022-11-09T20:59:09.097Z,150.70
2022-11-09T21:01:59.717Z,141.70
2022-11-09T21:04:50.165Z,141.50
2022-11-09T21:07:40.523Z,117.10
2022-11-09T21:10:30.991Z,136.00
2022-11-09T21:13:21.076Z,133.70
2022-11-09T21:16:13.114Z,133.90
2022-11-09T21:19:03.630Z,132.00
2022-11-09T21:21:53.883Z,149.00
2022-11-09T21:25:02.165Z,131.60
2022-11-09T21:28:10.960Z,118.80
2022-11-09T21:31:04.086Z,109.70
2022-11-09T21:33:56.929Z,83.50
2022-11-09T21:36:47.436Z,70.20
2022-11-09T21:39:37.623Z,71.20
2022-11-09T21:42:28.192Z,61.30
2022-11-09T21:45:18.832Z,61.50
2022-11-09T21:48:10.054Z,67.50
2022-11-09T21:51:02.137Z,79.40
2022-11-09T21:53:52.297Z,65.10
2022-11-09T21:56:42.770Z,74.00
2022-11-09T21:59:33.460Z,79.80
2022-11-09T22:02:24.084Z,79.50
2022-11-09T22:05:17.630Z,74.40
2022-11-09T22:08:10.651Z,77.60
2022-11-09T22:11:07.755Z,88.10
2022-11-09T22:14:15.406Z,102.40
2022-11-09T22:17:08.827Z,92.50
2022-11-09T22:20:16.630Z,84.20
2022-11-09T22:23:09.200Z,77.20
2022-11-09T22:26:01.609Z,90.20
2022-11-09T22:28:52.405Z,93.90
2022-11-09T22:31:42.445Z,94.50
2022-11-09T22:34:32.596Z,102.30
2022-11-09T22:37:22.448Z,106.70
2022-11-09T22:40:13.905Z,97.10
2022-11-09T22:43:04.193Z,87.50
2022-11-09T22:45:54.433Z,94.40
2022-11-09T22:48:45.180Z,70.40
2022-11-09T22:51:35.856Z,71.60
2022-11-09T22:54:28.108Z,63.60
2022-11-09T22:57:18.613Z,66.60
2022-11-09T23:00:11.820Z,63.60
2022-11-09T23:03:02.009Z,67.70
2022-11-09T23:05:52.232Z,84.00
2022-11-09T23:08:42.747Z,64.30
2022-11-09T23:11:32.595Z,66.30
2022-11-09T23:14:42.616Z,66.60
2022-11-09T23:17:50.506Z,60.80
2022-11-09T23:20:40.631Z,67.10
2022-11-09T23:23:30.675Z,65.70
2022-11-09T23:26:21.202Z,69.80
2022-11-09T23:29:11.149Z,69.10
2022-11-09T23:32:01.550Z,80.40
2022-11-09T23:34:52.013Z,78.40
2022-11-09T23:37:41.970Z,74.00
2022-11-09T23:40:33.203Z,70.90
2022-11-09T23:43:23.483Z,80.60
2022-11-09T23:46:15.033Z,81.30
2022-11-09T23:49:05.475Z,81.60
2022-11-09T23:51:55.581Z,82.30
2022-11-09T23:54:46.428Z,81.90
2022-11-09T23:57:36.718Z,70.50
